KSBDKABQ

Guest
Details From KSBD - San Bernardino Intl
To KABQ - Albuquerque International Sunport
Flight Number -
Tags Routegen Generated
Created
Modified
Stats Distance 527 nm / 976 km
Max Altitude 8,100 ft / 2,469 m
Waypoints 8
Social Downloads 0
Likes 0
Share VATSIM

Download

Looking for another format? Having issues loading an existing format? Contact us
Advertisement - Login to hide

Notes

Departing runway 7 KSBD. Arriving runway 9 KABQ.

Route

KSBD +34.12_-117.14 +34.12_-117.07 +34.40_-114.82 +34.63_-112.56 +34.83_-110.29 +35.04_-106.71 KABQ

ID Type Via Altitude Latitude Longitude Leg Dist Tot Dist Heading (true) Name
O KSBD APT - 0 ft / 0 m 34.09995˚ -117.21935˚ - 0 nm - -
+34.12_-117.14 LATLON - 8,100 ft / 2,469 m 34.12435˚ -117.13707˚ 4 nm 4 nm 70° / 70° -
+34.12_-117.07 LATLON - 8,100 ft / 2,469 m 34.12405˚ -117.06713˚ 3 nm 7 nm 90° / 90° -
+34.40_-114.82 LATLON - 8,100 ft / 2,469 m 34.39895˚ -114.81955˚ 112 nm 120 nm 81° / 82° -
+34.63_-112.56 LATLON - 8,100 ft / 2,469 m 34.63362˚ -112.56170˚ 112 nm 233 nm 82° / 83° -
+34.83_-110.29 LATLON - 8,100 ft / 2,469 m 34.82646˚ -110.29218˚ 112 nm 345 nm 83° / 85° -
+35.04_-106.71 LATLON - 560 ft / 171 m 35.04489˚ -106.70998˚ 176 nm 522 nm 85° / 87° -
O KABQ APT - 0 ft / 0 m 35.04435˚ -106.62159˚ 4 nm 527 nm 90° / 90° -

Altitude Profile

Advertisement - Login to hide

Weather


0- 5 10 15 20 25 30 35+ Temperature / ° C

Clouds and Precipitation
Forecast for 2017-12-13 18:00 UTC. Updated 2 minutes ago

Ground ~20,000 ft ~40,000 ft Winds

KSBD

Details ICAO KSBD (SBD)
Name San Bernardino Intl
Region United States
Timezone America/Los_Angeles (UTC-8.0)
Stats Elevation 1,157 ft / 353 m (AMSL)
Location 34.095343° -117.234869°
Runways 1
Magnetic Variation 11.792° E

METAR

KSBD 131500Z 06008KT 10SM SKC 08/M13 A3006

Decode

TAF

TAF KSBD 131120Z 1312/1412 VRB05KT P6SM SKC= TAF KSNY 131120Z 1312/1412 32020G28KT P6SM SCT120 BKN200 FM131600 34025G35KT P6SM SCT200 FM140000 35015G22KT P6SM BKN100 OVC150

Decode

Departure Runways

ID Width Length Bearing (true) Bearing (mag) Surface Threshold Offset Overrun Length
06 180 ft / 55 m 9,963 ft / 3,037 m 70.26° 58.47° Asphalt 0 ft / 0 m 1,000 ft / 305 m
24 180 ft / 55 m 9,963 ft / 3,037 m 250.27° 238.48° Asphalt 0 ft / 0 m 1,000 ft / 305 m

KABQ

Details ICAO KABQ (ABQ)
Name Albuquerque International Sunport
Region United States
Timezone America/Denver (UTC-7.0)
Stats Elevation 5,355 ft / 1,632 m (AMSL)
Location 35.039647° -106.610582°
Runways 4
Magnetic Variation 8.536° E

METAR

KABQ 131452Z 00000KT 10SM FEW130 M02/M13 A3021 RMK AO2 SLP237 T10171133 58002

Decode

TAF

TAF KABQ 131120Z 1312/1412 VRB04KT P6SM SKC FM140200 12006KT P6SM SCT200

Decode

Destination Runways

ID Width Length Bearing (true) Bearing (mag) Surface Threshold Offset Overrun Length
03 150 ft / 46 m 10,002 ft / 3,049 m 44.66° 36.12° Concrete 0 ft / 0 m 400 ft / 122 m
08 150 ft / 46 m 13,762 ft / 4,195 m 90.43° 81.89° Concrete 1,000 ft / 305 m 550 ft / 168 m
12 150 ft / 46 m 5,998 ft / 1,828 m 128.97° 120.43° Concrete 0 ft / 0 m 0 ft / 0 m
17 150 ft / 46 m 10,023 ft / 3,055 m 183.36° 174.82° Asphalt 890 ft / 271 m 100 ft / 30 m
21 150 ft / 46 m 10,002 ft / 3,049 m 224.67° 216.13° Concrete 0 ft / 0 m 0 ft / 0 m
26 150 ft / 46 m 13,762 ft / 4,195 m 270.45° 261.91° Concrete 0 ft / 0 m 1,000 ft / 305 m
30 150 ft / 46 m 5,998 ft / 1,828 m 308.98° 300.44° Concrete 0 ft / 0 m 0 ft / 0 m
35 150 ft / 46 m 10,023 ft / 3,055 m 3.36° 354.82° Asphalt 0 ft / 0 m 200 ft / 61 m

Approach Navaids

Runway Type Ident Frequency Range Bearing (true) Bearing (mag) Slope Elevation
03 Localiser IBZY 111.50 MHz 18 nm / 33 km 44.67° 36.14° - 5,316 ft / 1,620 m (AMSL)
03 Glidescope IBZY 111.50 MHz 10 nm / 19 km 44.66° 36.13° 3.00° 5,304 ft / 1,617 m (AMSL)
08 Localiser ISPT 111.90 MHz 18 nm / 33 km 90.46° 81.93° - 5,358 ft / 1,633 m (AMSL)
08 Glidescope ISPT 111.90 MHz 10 nm / 19 km 90.44° 81.90° 3.00° 5,312 ft / 1,619 m (AMSL)
08 DME ISPT 111.90 MHz 18 nm / 33 km - - - 5,374 ft / 1,638 m (AMSL)